Thomson Spirit — 9HA2336 — position and weather

sailwx.info

Track history (hours):
 
Tides and Currents Weather Stations Pressure Air Temp Water Temp Dewpoint Dewpoint Depression Visibility Wind Speed Wind Dir Waves Ship Positions

Thomson Spirit

Last reported at 2015-May-03 22:29 UTC. Time now 2015-May-04 05:00 UTC.
Position N 36°32' E 027°06'.

Length 214 m; draft 7.8 m.

Type: Passenger vessel. MMSI: 248368000.

Date/timePositionNaut miles runAvg speedWind from/ knotsBaromVisibWave heightAir tempDewpointWater temp
2015-May-03 22:29N 36°32' E 027°06'5512.5
2015-May-03 18:04N 37°02' E 026°08'611.1
2015-May-03 17:32N 37°06' E 026°03'1111.7
2015-May-03 16:33N 37°14' E 025°53'1413.7
2015-May-03 15:33N 37°24' E 025°40'1413.9
2015-May-03 14:34N 37°31' E 025°25'6 5.5
2015-May-03 13:34N 37°28' E 025°19'0 0.0
2015-May-03 12:34N 37°28' E 025°19'0 0.0
2015-May-03 11:33N 37°28' E 025°19'0 0.0
2015-May-03 10:34N 37°28' E 025°19'0 0.0
2015-May-03 09:34N 37°28' E 025°19'0 0.0
2015-May-03 08:34N 37°28' E 025°19'0 0.0
2015-May-03 07:34N 37°28' E 025°19'0 0.0
2015-May-03 06:33N 37°28' E 025°19'0 0.0
2015-May-03 05:34N 37°28' E 025°19'0 0.0
2015-May-03 04:34N 37°28' E 025°19'3 3.0
2015-May-03 03:32N 37°31' E 025°20'8 8.2
2015-May-03 02:34N 37°29' E 025°30'8 8.4
2015-May-03 01:33N 37°25' E 025°39'9 8.7
2015-May-03 00:33N 37°21' E 025°49'9 8.9
2015-May-02 23:33N 37°17' E 025°59'18 8.3
2015-May-02 21:23N 37°09' E 026°19'54 3.0
2015-May-02 03:27N 37°01' E 027°26'8 6.6
2015-May-02 02:17N 36°54' E 027°24'282 5.4
2015-Apr-29 22:23N 34°39' E 032°30'1214.0
2015-Apr-29 21:33N 34°35' E 032°43'1313.3
2015-Apr-29 20:34N 34°31' E 032°58'8 8.3
2015-Apr-29 19:34N 34°39' E 033°02'1 0.5
2015-Apr-29 18:33N 34°39' E 033°01'0 0.0
2015-Apr-29 17:34N 34°39' E 033°01'0 0.0
2015-Apr-29 16:34N 34°39' E 033°01'0 0.0
2015-Apr-29 15:27N 34°39' E 033°01'0 0.0
2015-Apr-29 14:33N 34°39' E 033°01'0 0.0
2015-Apr-29 13:34N 34°39' E 033°01'0 0.0
2015-Apr-29 12:34N 34°39' E 033°01'0 0.0
2015-Apr-29 11:33N 34°39' E 033°01'0 0.0
2015-Apr-29 10:33N 34°39' E 033°01'0 0.0
2015-Apr-29 09:34N 34°39' E 033°01'0 0.0
2015-Apr-29 08:34N 34°39' E 033°01'0 0.0
2015-Apr-29 07:34N 34°39' E 033°01'0 0.0
2015-Apr-29 06:34N 34°39' E 033°01'0 0.0
2015-Apr-29 05:34N 34°39' E 033°01'0 0.0
2015-Apr-29 04:34N 34°39' E 033°01'1111.4
2015-Apr-29 03:34N 34°29' E 033°06'1815.8
2015-Apr-29 02:24N 34°11' E 033°11'1315.1
2015-Apr-29 01:33N 33°58' E 033°14'1514.8
2015-Apr-29 00:33N 33°44' E 033°19'1714.9
2015-Apr-28 23:25N 33°27' E 033°23'1315.0
2015-Apr-28 22:34N 33°15' E 033°26'1414.4
2015-Apr-28 21:33N 33°01' E 033°30'1414.4
2015-Apr-28 20:34N 32°47' E 033°34'1414.4
2015-Apr-28 19:34N 32°35' E 033°44'1515.1
2015-Apr-28 18:34N 32°24' E 033°56'1515.1
2015-Apr-28 17:34N 32°13' E 034°07'1515.3
2015-Apr-28 16:33N 32°01' E 034°19'1514.6
2015-Apr-28 15:34N 31°52' E 034°33'5 2.2
2015-Apr-28 13:04N 31°50' E 034°39'0 0.0
2015-Apr-28 12:34N 31°50' E 034°39'0 0.0
2015-Apr-28 10:32N 31°50' E 034°39'0 0.0
2015-Apr-28 09:33N 31°50' E 034°39'0 0.0
2015-Apr-27 16:20N 31°50' E 034°39'3 0.2
2015-Apr-27 02:08N 31°51' E 034°36'711.6
2015-Apr-27 01:34N 31°53' E 034°28'1413.9
2015-Apr-27 00:34N 31°59' E 034°13'1514.6
2015-Apr-26 23:33N 32°05' E 033°58'1414.3
2015-Apr-26 22:33N 32°12' E 033°43'1414.2
2015-Apr-26 21:33N 32°18' E 033°28'1414.1
2015-Apr-26 20:34N 32°25' E 033°14'1514.2
2015-Apr-26 19:31N 32°32' E 032°58'1314.0
2015-Apr-26 18:34N 32°39' E 032°44'1414.2
2015-Apr-26 17:33N 32°45' E 032°29'1414.0
2015-Apr-26 16:34N 32°52' E 032°15'1414.3
2015-Apr-26 15:34N 32°59' E 031°60'1414.4
2015-Apr-26 14:34N 33°06' E 031°45'26914.8
2015-Apr-25 20:27N 35°15' E 026°60'1714.6
2015-Apr-25 19:15N 35°24' E 026°42'7614.8
2015-Apr-25 14:06N 36°13' E 025°30'814.3
2015-Apr-25 13:33N 36°19' E 025°23'6 6.4
2015-Apr-25 12:33N 36°25' E 025°25'0 0.1
2015-Apr-25 11:33N 36°25' E 025°25'0 0.0
2015-Apr-25 10:33N 36°25' E 025°25'0 0.0
2015-Apr-25 09:32N 36°25' E 025°25'0 0.0
2015-Apr-25 08:32N 36°25' E 025°25'0 0.0
2015-Apr-25 07:32N 36°25' E 025°25'0 0.0
2015-Apr-25 06:32N 36°25' E 025°25'0 0.0
2015-Apr-25 05:33N 36°25' E 025°25'0 0.0
2015-Apr-25 04:33N 36°25' E 025°25'0 0.1
2015-Apr-25 03:33N 36°25' E 025°25'6 5.8
2015-Apr-25 02:33N 36°30' E 025°27'1211.8
2015-Apr-25 01:33N 36°30' E 025°41'1313.1
2015-Apr-25 00:33N 36°30' E 025°58'1313.2
2015-Apr-24 23:33N 36°29' E 026°14'  
Track history (hours):
 
Tides and Currents Weather Stations Pressure Air Temp Water Temp Dewpoint Dewpoint Depression Visibility Wind Speed Wind Dir Waves Ship Positions

Thomson Spirit

Last reported at 2015-May-03 22:29 UTC. Time now 2015-May-04 05:00 UTC.
Position N 36°32' E 027°06'.

Length 214 m; draft 7.8 m.

Type: Passenger vessel. MMSI: 248368000.

Date/timePositionNaut miles runAvg speedWind from/ knotsBaromVisibWave heightAir tempDewpointWater temp
2015-May-03 22:29N 36°32' E 027°06'5512.5
2015-May-03 18:04N 37°02' E 026°08'611.1
2015-May-03 17:32N 37°06' E 026°03'1111.7
2015-May-03 16:33N 37°14' E 025°53'1413.7
2015-May-03 15:33N 37°24' E 025°40'1413.9
2015-May-03 14:34N 37°31' E 025°25'6 5.5
2015-May-03 13:34N 37°28' E 025°19'0 0.0
2015-May-03 12:34N 37°28' E 025°19'0 0.0
2015-May-03 11:33N 37°28' E 025°19'0 0.0
2015-May-03 10:34N 37°28' E 025°19'0 0.0
2015-May-03 09:34N 37°28' E 025°19'0 0.0
2015-May-03 08:34N 37°28' E 025°19'0 0.0
2015-May-03 07:34N 37°28' E 025°19'0 0.0
2015-May-03 06:33N 37°28' E 025°19'0 0.0
2015-May-03 05:34N 37°28' E 025°19'0 0.0
2015-May-03 04:34N 37°28' E 025°19'3 3.0
2015-May-03 03:32N 37°31' E 025°20'8 8.2
2015-May-03 02:34N 37°29' E 025°30'8 8.4
2015-May-03 01:33N 37°25' E 025°39'9 8.7
2015-May-03 00:33N 37°21' E 025°49'9 8.9
2015-May-02 23:33N 37°17' E 025°59'18 8.3
2015-May-02 21:23N 37°09' E 026°19'54 3.0
2015-May-02 03:27N 37°01' E 027°26'8 6.6
2015-May-02 02:17N 36°54' E 027°24'282 5.4
2015-Apr-29 22:23N 34°39' E 032°30'1214.0
2015-Apr-29 21:33N 34°35' E 032°43'1313.3
2015-Apr-29 20:34N 34°31' E 032°58'8 8.3
2015-Apr-29 19:34N 34°39' E 033°02'1 0.5
2015-Apr-29 18:33N 34°39' E 033°01'0 0.0
2015-Apr-29 17:34N 34°39' E 033°01'0 0.0
2015-Apr-29 16:34N 34°39' E 033°01'0 0.0
2015-Apr-29 15:27N 34°39' E 033°01'0 0.0
2015-Apr-29 14:33N 34°39' E 033°01'0 0.0
2015-Apr-29 13:34N 34°39' E 033°01'0 0.0
2015-Apr-29 12:34N 34°39' E 033°01'0 0.0
2015-Apr-29 11:33N 34°39' E 033°01'0 0.0
2015-Apr-29 10:33N 34°39' E 033°01'0 0.0
2015-Apr-29 09:34N 34°39' E 033°01'0 0.0
2015-Apr-29 08:34N 34°39' E 033°01'0 0.0
2015-Apr-29 07:34N 34°39' E 033°01'0 0.0
2015-Apr-29 06:34N 34°39' E 033°01'0 0.0
2015-Apr-29 05:34N 34°39' E 033°01'0 0.0
2015-Apr-29 04:34N 34°39' E 033°01'1111.4
2015-Apr-29 03:34N 34°29' E 033°06'1815.8
2015-Apr-29 02:24N 34°11' E 033°11'1315.1
2015-Apr-29 01:33N 33°58' E 033°14'1514.8
2015-Apr-29 00:33N 33°44' E 033°19'1714.9
2015-Apr-28 23:25N 33°27' E 033°23'1315.0
2015-Apr-28 22:34N 33°15' E 033°26'1414.4
2015-Apr-28 21:33N 33°01' E 033°30'1414.4
2015-Apr-28 20:34N 32°47' E 033°34'1414.4
2015-Apr-28 19:34N 32°35' E 033°44'1515.1
2015-Apr-28 18:34N 32°24' E 033°56'1515.1
2015-Apr-28 17:34N 32°13' E 034°07'1515.3
2015-Apr-28 16:33N 32°01' E 034°19'1514.6
2015-Apr-28 15:34N 31°52' E 034°33'5 2.2
2015-Apr-28 13:04N 31°50' E 034°39'0 0.0
2015-Apr-28 12:34N 31°50' E 034°39'0 0.0
2015-Apr-28 10:32N 31°50' E 034°39'0 0.0
2015-Apr-28 09:33N 31°50' E 034°39'0 0.0
2015-Apr-27 16:20N 31°50' E 034°39'3 0.2
2015-Apr-27 02:08N 31°51' E 034°36'711.6
2015-Apr-27 01:34N 31°53' E 034°28'1413.9
2015-Apr-27 00:34N 31°59' E 034°13'1514.6
2015-Apr-26 23:33N 32°05' E 033°58'1414.3
2015-Apr-26 22:33N 32°12' E 033°43'1414.2
2015-Apr-26 21:33N 32°18' E 033°28'1414.1
2015-Apr-26 20:34N 32°25' E 033°14'1514.2
2015-Apr-26 19:31N 32°32' E 032°58'1314.0
2015-Apr-26 18:34N 32°39' E 032°44'1414.2
2015-Apr-26 17:33N 32°45' E 032°29'1414.0
2015-Apr-26 16:34N 32°52' E 032°15'1414.3
2015-Apr-26 15:34N 32°59' E 031°60'1414.4
2015-Apr-26 14:34N 33°06' E 031°45'26914.8
2015-Apr-25 20:27N 35°15' E 026°60'1714.6
2015-Apr-25 19:15N 35°24' E 026°42'7614.8
2015-Apr-25 14:06N 36°13' E 025°30'814.3
2015-Apr-25 13:33N 36°19' E 025°23'6 6.4
2015-Apr-25 12:33N 36°25' E 025°25'0 0.1
2015-Apr-25 11:33N 36°25' E 025°25'0 0.0
2015-Apr-25 10:33N 36°25' E 025°25'0 0.0
2015-Apr-25 09:32N 36°25' E 025°25'0 0.0
2015-Apr-25 08:32N 36°25' E 025°25'0 0.0
2015-Apr-25 07:32N 36°25' E 025°25'0 0.0
2015-Apr-25 06:32N 36°25' E 025°25'0 0.0
2015-Apr-25 05:33N 36°25' E 025°25'0 0.0
2015-Apr-25 04:33N 36°25' E 025°25'0 0.1
2015-Apr-25 03:33N 36°25' E 025°25'6 5.8
2015-Apr-25 02:33N 36°30' E 025°27'1211.8
2015-Apr-25 01:33N 36°30' E 025°41'1313.1
2015-Apr-25 00:33N 36°30' E 025°58'1313.2
2015-Apr-24 23:33N 36°29' E 026°14'  

Dump ship's entire track history